sensor_id;sensor_type;location;lat;lon;timestamp;pressure;altitude;pressure_sealevel;temperature;humidity
40940;BME280;26666;50.156;7.700;2023-03-31T00:03:14;99670.75;;;10.87;100.00
40940;BME280;26666;50.156;7.700;2023-03-31T00:08:16;99654.38;;;11.01;100.00
40940;BME280;26666;50.156;7.700;2023-03-31T00:13:19;99641.47;;;10.98;100.00
40940;BME280;26666;50.156;7.700;2023-03-31T00:18:20;99635.03;;;10.82;100.00
40940;BME280;26666;50.156;7.700;2023-03-31T00:23:22;99625.75;;;10.78;100.00
40940;BME280;26666;50.156;7.700;2023-03-31T00:28:25;99612.06;;;11.01;100.00
40940;BME280;26666;50.156;7.700;2023-03-31T00:33:27;99604.31;;;10.99;100.00
40940;BME280;26666;50.156;7.700;2023-03-31T00:38:29;99595.31;;;10.92;100.00
40940;BME280;26666;50.156;7.700;2023-03-31T00:43:33;99589.56;;;10.97;100.00
40940;BME280;26666;50.156;7.700;2023-03-31T00:48:36;99579.56;;;10.82;100.00
40940;BME280;26666;50.156;7.700;2023-03-31T00:53:38;99572.44;;;10.83;100.00
40940;BME280;26666;50.156;7.700;2023-03-31T00:58:42;99551.53;;;10.90;100.00
40940;BME280;26666;50.156;7.700;2023-03-31T01:03:45;99539.97;;;10.91;100.00
40940;BME280;26666;50.156;7.700;2023-03-31T01:08:48;99531.22;;;10.90;100.00
40940;BME280;26666;50.156;7.700;2023-03-31T01:13:52;99521.63;;;10.89;100.00
40940;BME280;26666;50.156;7.700;2023-03-31T01:18:55;99514.69;;;10.88;100.00
40940;BME280;26666;50.156;7.700;2023-03-31T01:24:10;99500.19;;;10.92;100.00
40940;BME280;26666;50.156;7.700;2023-03-31T01:34:57;99471.97;;;10.75;100.00
40940;BME280;26666;50.156;7.700;2023-03-31T01:40:33;99458.63;;;10.76;100.00
40940;BME280;26666;50.156;7.700;2023-03-31T01:45:46;99443.34;;;10.88;100.00
40940;BME280;26666;50.156;7.700;2023-03-31T01:50:54;99436.19;;;10.80;100.00
40940;BME280;26666;50.156;7.700;2023-03-31T01:56:01;99424.19;;;10.68;100.00
40940;BME280;26666;50.156;7.700;2023-03-31T02:01:13;99419.53;;;10.62;100.00
40940;BME280;26666;50.156;7.700;2023-03-31T02:06:20;99411.59;;;10.62;100.00
40940;BME280;26666;50.156;7.700;2023-03-31T02:11:24;99407.97;;;10.89;100.00
40940;BME280;26666;50.156;7.700;2023-03-31T02:16:31;99413.06;;;10.82;100.00
40940;BME280;26666;50.156;7.700;2023-03-31T02:21:37;99403.31;;;10.57;100.00
40940;BME280;26666;50.156;7.700;2023-03-31T02:26:45;99394.72;;;10.55;100.00
40940;BME280;26666;50.156;7.700;2023-03-31T02:31:55;99385.09;;;10.45;100.00
40940;BME280;26666;50.156;7.700;2023-03-31T02:36:59;99363.22;;;10.61;100.00
40940;BME280;26666;50.156;7.700;2023-03-31T02:42:03;99339.59;;;10.60;100.00
40940;BME280;26666;50.156;7.700;2023-03-31T02:47:06;99305.94;;;10.62;100.00
40940;BME280;26666;50.156;7.700;2023-03-31T02:52:18;99270.88;;;10.52;100.00
40940;BME280;26666;50.156;7.700;2023-03-31T02:57:40;99286.44;;;10.55;100.00
40940;BME280;26666;50.156;7.700;2023-03-31T03:02:56;99271.56;;;10.54;100.00
40940;BME280;26666;50.156;7.700;2023-03-31T03:08:09;99244.59;;;10.42;100.00
40940;BME280;26666;50.156;7.700;2023-03-31T03:13:20;99261.69;;;10.30;100.00
40940;BME280;26666;50.156;7.700;2023-03-31T03:18:29;99257.91;;;10.32;100.00
40940;BME280;26666;50.156;7.700;2023-03-31T03:23:31;99237.84;;;10.21;100.00
40940;BME280;26666;50.156;7.700;2023-03-31T03:28:34;99211.00;;;10.26;100.00
40940;BME280;26666;50.156;7.700;2023-03-31T03:33:36;99221.00;;;10.49;100.00
40940;BME280;26666;50.156;7.700;2023-03-31T03:38:38;99216.72;;;10.48;100.00
40940;BME280;26666;50.156;7.700;2023-03-31T03:43:41;99211.00;;;10.26;100.00
40940;BME280;26666;50.156;7.700;2023-03-31T03:48:42;99204.72;;;10.27;100.00
40940;BME280;26666;50.156;7.700;2023-03-31T03:53:44;99182.69;;;10.36;100.00
40940;BME280;26666;50.156;7.700;2023-03-31T03:58:47;99176.75;;;10.42;100.00
40940;BME280;26666;50.156;7.700;2023-03-31T04:03:49;99183.03;;;10.41;100.00
40940;BME280;26666;50.156;7.700;2023-03-31T04:08:51;99177.25;;;10.38;100.00
40940;BME280;26666;50.156;7.700;2023-03-31T04:13:54;99164.09;;;10.20;100.00
40940;BME280;26666;50.156;7.700;2023-03-31T04:18:55;99158.84;;;10.28;100.00
40940;BME280;26666;50.156;7.700;2023-03-31T04:23:57;99156.22;;;10.28;100.00
40940;BME280;26666;50.156;7.700;2023-03-31T04:29:00;99159.16;;;10.25;100.00
40940;BME280;26666;50.156;7.700;2023-03-31T04:34:02;99137.94;;;10.35;100.00
40940;BME280;26666;50.156;7.700;2023-03-31T04:39:04;99108.50;;;10.21;100.00
40940;BME280;26666;50.156;7.700;2023-03-31T04:44:07;99088.22;;;10.22;100.00
40940;BME280;26666;50.156;7.700;2023-03-31T04:49:08;99093.41;;;10.32;100.00
40940;BME280;26666;50.156;7.700;2023-03-31T04:54:10;99094.00;;;10.25;100.00
40940;BME280;26666;50.156;7.700;2023-03-31T04:59:13;99099.44;;;10.16;100.00
40940;BME280;26666;50.156;7.700;2023-03-31T05:04:15;99090.00;;;10.21;100.00
40940;BME280;26666;50.156;7.700;2023-03-31T05:09:17;99098.00;;;9.95;100.00
40940;BME280;26666;50.156;7.700;2023-03-31T05:14:20;99104.31;;;10.02;100.00
40940;BME280;26666;50.156;7.700;2023-03-31T05:19:21;99091.56;;;9.98;100.00
40940;BME280;26666;50.156;7.700;2023-03-31T05:24:23;99070.16;;;10.01;100.00
40940;BME280;26666;50.156;7.700;2023-03-31T05:29:26;99040.63;;;10.05;100.00
40940;BME280;26666;50.156;7.700;2023-03-31T05:34:28;99021.41;;;10.30;100.00
40940;BME280;26666;50.156;7.700;2023-03-31T05:39:30;99001.97;;;10.31;100.00
40940;BME280;26666;50.156;7.700;2023-03-31T05:44:33;98997.81;;;10.20;100.00
40940;BME280;26666;50.156;7.700;2023-03-31T05:49:35;98987.56;;;10.09;100.00
40940;BME280;26666;50.156;7.700;2023-03-31T05:54:36;98998.47;;;10.22;100.00
40940;BME280;26666;50.156;7.700;2023-03-31T05:59:39;98982.94;;;10.19;100.00
40940;BME280;26666;50.156;7.700;2023-03-31T06:04:41;98996.50;;;10.24;100.00
40940;BME280;26666;50.156;7.700;2023-03-31T06:09:44;99001.63;;;10.25;100.00
40940;BME280;26666;50.156;7.700;2023-03-31T06:14:47;99009.19;;;10.29;100.00
40940;BME280;26666;50.156;7.700;2023-03-31T06:19:49;99007.03;;;10.16;100.00
40940;BME280;26666;50.156;7.700;2023-03-31T06:24:51;98979.94;;;10.05;100.00
40940;BME280;26666;50.156;7.700;2023-03-31T06:29:54;98959.53;;;10.16;100.00
40940;BME280;26666;50.156;7.700;2023-03-31T06:34:55;98926.53;;;10.20;100.00
40940;BME280;26666;50.156;7.700;2023-03-31T06:39:57;98916.09;;;10.02;100.00
40940;BME280;26666;50.156;7.700;2023-03-31T06:45:00;98901.44;;;9.91;100.00
40940;BME280;26666;50.156;7.700;2023-03-31T06:50:02;98899.28;;;10.19;100.00
40940;BME280;26666;50.156;7.700;2023-03-31T06:55:05;98865.16;;;10.10;100.00
40940;BME280;26666;50.156;7.700;2023-03-31T07:00:10;98865.50;;;10.06;100.00
40940;BME280;26666;50.156;7.700;2023-03-31T07:05:12;98864.22;;;10.35;100.00
40940;BME280;26666;50.156;7.700;2023-03-31T07:10:13;98871.47;;;10.41;100.00
40940;BME280;26666;50.156;7.700;2023-03-31T07:15:16;98851.97;;;10.59;100.00
40940;BME280;26666;50.156;7.700;2023-03-31T07:20:18;98839.06;;;10.56;100.00
40940;BME280;26666;50.156;7.700;2023-03-31T07:25:20;98827.84;;;10.62;100.00
40940;BME280;26666;50.156;7.700;2023-03-31T07:30:23;98837.69;;;11.55;100.00
40940;BME280;26666;50.156;7.700;2023-03-31T07:35:25;98828.75;;;15.29;100.00
40940;BME280;26666;50.156;7.700;2023-03-31T07:40:31;98831.06;;;15.45;100.00
40940;BME280;26666;50.156;7.700;2023-03-31T07:45:35;98820.66;;;14.39;100.00
40940;BME280;26666;50.156;7.700;2023-03-31T07:50:36;98825.72;;;13.63;100.00
40940;BME280;26666;50.156;7.700;2023-03-31T07:55:38;98824.31;;;13.88;100.00
40940;BME280;26666;50.156;7.700;2023-03-31T08:00:41;98819.69;;;13.75;100.00
40940;BME280;26666;50.156;7.700;2023-03-31T08:05:43;98813.63;;;13.24;100.00
40940;BME280;26666;50.156;7.700;2023-03-31T08:10:45;98803.75;;;13.02;100.00
40940;BME280;26666;50.156;7.700;2023-03-31T08:15:48;98813.09;;;13.13;100.00
40940;BME280;26666;50.156;7.700;2023-03-31T08:20:50;98809.63;;;12.68;100.00
40940;BME280;26666;50.156;7.700;2023-03-31T08:25:51;98802.59;;;12.46;100.00
40940;BME280;26666;50.156;7.700;2023-03-31T08:30:54;98806.97;;;12.38;100.00
40940;BME280;26666;50.156;7.700;2023-03-31T08:35:56;98802.69;;;12.52;100.00
40940;BME280;26666;50.156;7.700;2023-03-31T08:41:02;98805.53;;;12.80;100.00
40940;BME280;26666;50.156;7.700;2023-03-31T08:46:09;98805.06;;;13.79;100.00
40940;BME280;26666;50.156;7.700;2023-03-31T08:51:15;98784.06;;;13.85;100.00
40940;BME280;26666;50.156;7.700;2023-03-31T08:56:21;98780.81;;;14.11;100.00
40940;BME280;26666;50.156;7.700;2023-03-31T09:01:31;98777.47;;;14.30;100.00
40940;BME280;26666;50.156;7.700;2023-03-31T09:06:56;98782.13;;;13.72;100.00
40940;BME280;26666;50.156;7.700;2023-03-31T09:12:04;98787.28;;;13.58;100.00
40940;BME280;26666;50.156;7.700;2023-03-31T09:17:16;98775.53;;;13.68;100.00
40940;BME280;26666;50.156;7.700;2023-03-31T09:22:28;98758.72;;;13.82;100.00
40940;BME280;26666;50.156;7.700;2023-03-31T09:27:32;98784.16;;;13.33;100.00
40940;BME280;26666;50.156;7.700;2023-03-31T09:32:37;98774.25;;;13.06;100.00
40940;BME280;26666;50.156;7.700;2023-03-31T09:37:39;98763.88;;;12.59;100.00
40940;BME280;26666;50.156;7.700;2023-03-31T09:42:41;98787.06;;;12.42;100.00
40940;BME280;26666;50.156;7.700;2023-03-31T09:47:46;98770.97;;;12.14;100.00
40940;BME280;26666;50.156;7.700;2023-03-31T09:52:52;98769.69;;;12.10;100.00
40940;BME280;26666;50.156;7.700;2023-03-31T09:57:54;98768.09;;;12.01;100.00
40940;BME280;26666;50.156;7.700;2023-03-31T10:03:01;98754.59;;;12.26;100.00
40940;BME280;26666;50.156;7.700;2023-03-31T10:08:20;98745.84;;;12.55;100.00
40940;BME280;26666;50.156;7.700;2023-03-31T10:13:24;98736.22;;;12.98;100.00
40940;BME280;26666;50.156;7.700;2023-03-31T10:18:33;98725.03;;;13.03;100.00
40940;BME280;26666;50.156;7.700;2023-03-31T10:23:35;98711.66;;;13.48;100.00
40940;BME280;26666;50.156;7.700;2023-03-31T10:28:37;98722.25;;;13.69;100.00
40940;BME280;26666;50.156;7.700;2023-03-31T10:33:43;98719.16;;;13.44;100.00
40940;BME280;26666;50.156;7.700;2023-03-31T10:38:47;98713.59;;;13.82;100.00
40940;BME280;26666;50.156;7.700;2023-03-31T10:43:50;98716.47;;;14.15;100.00
40940;BME280;26666;50.156;7.700;2023-03-31T10:48:53;98704.69;;;13.96;100.00
40940;BME280;26666;50.156;7.700;2023-03-31T10:54:00;98711.31;;;13.79;100.00
40940;BME280;26666;50.156;7.700;2023-03-31T10:59:16;98710.09;;;14.10;100.00
40940;BME280;26666;50.156;7.700;2023-03-31T11:04:36;98706.66;;;14.16;100.00
40940;BME280;26666;50.156;7.700;2023-03-31T11:09:49;98694.34;;;14.36;100.00
40940;BME280;26666;50.156;7.700;2023-03-31T11:15:07;98689.13;;;14.56;100.00
40940;BME280;26666;50.156;7.700;2023-03-31T11:20:22;98683.91;;;14.42;100.00
40940;BME280;26666;50.156;7.700;2023-03-31T11:25:30;98668.41;;;14.45;100.00
40940;BME280;26666;50.156;7.700;2023-03-31T11:30:37;98675.09;;;14.76;100.00
40940;BME280;26666;50.156;7.700;2023-03-31T11:35:53;98687.00;;;14.38;100.00
40940;BME280;26666;50.156;7.700;2023-03-31T11:41:01;98686.19;;;14.45;100.00
40940;BME280;26666;50.156;7.700;2023-03-31T11:46:07;98672.75;;;14.53;100.00
40940;BME280;26666;50.156;7.700;2023-03-31T11:51:15;98661.91;;;14.48;100.00
40940;BME280;26666;50.156;7.700;2023-03-31T11:56:19;98655.56;;;14.49;100.00
40940;BME280;26666;50.156;7.700;2023-03-31T12:01:26;98624.22;;;14.86;100.00
40940;BME280;26666;50.156;7.700;2023-03-31T12:06:32;98625.81;;;14.73;98.02
40940;BME280;26666;50.156;7.700;2023-03-31T12:11:45;98612.69;;;14.58;100.00
40940;BME280;26666;50.156;7.700;2023-03-31T12:16:51;98607.44;;;14.85;95.82
40940;BME280;26666;50.156;7.700;2023-03-31T12:22:03;98594.75;;;14.87;93.24
40940;BME280;26666;50.156;7.700;2023-03-31T12:27:12;98596.34;;;14.68;96.50
40940;BME280;26666;50.156;7.700;2023-03-31T12:32:19;98605.09;;;14.55;87.36
40940;BME280;26666;50.156;7.700;2023-03-31T12:37:47;98604.94;;;14.70;88.28
40940;BME280;26666;50.156;7.700;2023-03-31T12:43:07;98603.34;;;14.89;80.45
40940;BME280;26666;50.156;7.700;2023-03-31T12:53:59;98580.47;;;15.15;85.31
40940;BME280;26666;50.156;7.700;2023-03-31T12:59:17;98579.25;;;15.04;83.23
40940;BME280;26666;50.156;7.700;2023-03-31T13:04:20;98594.28;;;14.57;85.25
40940;BME280;26666;50.156;7.700;2023-03-31T13:09:56;98617.88;;;13.90;100.00
40940;BME280;26666;50.156;7.700;2023-03-31T13:14:58;98631.16;;;13.97;100.00
40940;BME280;26666;50.156;7.700;2023-03-31T13:20:23;98618.91;;;13.96;100.00
40940;BME280;26666;50.156;7.700;2023-03-31T13:25:41;98596.88;;;13.95;100.00
40940;BME280;26666;50.156;7.700;2023-03-31T13:30:46;98586.34;;;14.22;100.00
40940;BME280;26666;50.156;7.700;2023-03-31T13:35:51;98603.69;;;14.18;100.00
40940;BME280;26666;50.156;7.700;2023-03-31T13:41:01;98602.63;;;14.06;100.00
40940;BME280;26666;50.156;7.700;2023-03-31T13:46:24;98594.03;;;14.04;100.00
40940;BME280;26666;50.156;7.700;2023-03-31T13:51:34;98576.69;;;14.08;100.00
40940;BME280;26666;50.156;7.700;2023-03-31T13:56:47;98563.03;;;14.11;98.43
40940;BME280;26666;50.156;7.700;2023-03-31T14:07:37;98545.03;;;14.06;98.80
40940;BME280;26666;50.156;7.700;2023-03-31T14:12:43;98547.56;;;14.28;92.64
40940;BME280;26666;50.156;7.700;2023-03-31T14:17:45;98544.69;;;14.23;91.87
40940;BME280;26666;50.156;7.700;2023-03-31T14:22:55;98585.28;;;14.10;93.75
40940;BME280;26666;50.156;7.700;2023-03-31T14:28:07;98601.75;;;13.64;100.00
40940;BME280;26666;50.156;7.700;2023-03-31T14:33:27;98669.94;;;13.35;100.00
40940;BME280;26666;50.156;7.700;2023-03-31T14:38:32;98609.34;;;12.22;100.00
40940;BME280;26666;50.156;7.700;2023-03-31T14:43:39;98583.13;;;12.28;100.00
40940;BME280;26666;50.156;7.700;2023-03-31T14:48:48;98563.53;;;12.22;100.00
40940;BME280;26666;50.156;7.700;2023-03-31T14:53:55;98564.88;;;12.54;100.00
40940;BME280;26666;50.156;7.700;2023-03-31T14:58:58;98571.06;;;12.25;100.00
40940;BME280;26666;50.156;7.700;2023-03-31T15:04:05;98566.22;;;12.43;100.00
40940;BME280;26666;50.156;7.700;2023-03-31T15:09:08;98553.69;;;12.37;100.00
40940;BME280;26666;50.156;7.700;2023-03-31T15:14:14;98558.19;;;12.58;100.00
40940;BME280;26666;50.156;7.700;2023-03-31T15:19:18;98550.56;;;12.70;100.00
40940;BME280;26666;50.156;7.700;2023-03-31T15:24:21;98566.16;;;12.80;100.00
40940;BME280;26666;50.156;7.700;2023-03-31T15:29:31;98573.03;;;12.74;100.00
40940;BME280;26666;50.156;7.700;2023-03-31T15:34:35;98624.53;;;12.65;100.00
40940;BME280;26666;50.156;7.700;2023-03-31T15:39:37;98589.81;;;12.60;100.00
40940;BME280;26666;50.156;7.700;2023-03-31T15:44:45;98567.84;;;12.45;100.00
40940;BME280;26666;50.156;7.700;2023-03-31T15:49:52;98566.56;;;12.40;100.00
40940;BME280;26666;50.156;7.700;2023-03-31T15:54:55;98563.13;;;12.25;100.00
40940;BME280;26666;50.156;7.700;2023-03-31T15:59:58;98548.75;;;12.13;100.00
40940;BME280;26666;50.156;7.700;2023-03-31T16:05:00;98550.00;;;12.17;100.00
40940;BME280;26666;50.156;7.700;2023-03-31T16:10:09;98573.88;;;12.38;100.00
40940;BME280;26666;50.156;7.700;2023-03-31T16:15:20;98576.66;;;12.30;100.00
40940;BME280;26666;50.156;7.700;2023-03-31T16:20:30;98572.16;;;12.31;100.00
40940;BME280;26666;50.156;7.700;2023-03-31T16:25:38;98565.91;;;12.17;100.00
40940;BME280;26666;50.156;7.700;2023-03-31T16:30:42;98571.06;;;12.25;100.00
40940;BME280;26666;50.156;7.700;2023-03-31T16:35:46;98569.53;;;12.31;100.00
40940;BME280;26666;50.156;7.700;2023-03-31T16:40:49;98570.78;;;12.35;100.00
40940;BME280;26666;50.156;7.700;2023-03-31T16:45:55;98566.59;;;12.26;100.00
40940;BME280;26666;50.156;7.700;2023-03-31T16:50:58;98572.63;;;12.34;100.00
40940;BME280;26666;50.156;7.700;2023-03-31T16:56:00;98587.31;;;12.37;100.00
40940;BME280;26666;50.156;7.700;2023-03-31T17:01:04;98589.78;;;12.38;100.00
40940;BME280;26666;50.156;7.700;2023-03-31T17:06:08;98600.53;;;12.52;100.00
40940;BME280;26666;50.156;7.700;2023-03-31T17:11:12;98594.78;;;12.48;100.00
40940;BME280;26666;50.156;7.700;2023-03-31T17:16:15;98604.56;;;12.33;100.00
40940;BME280;26666;50.156;7.700;2023-03-31T17:21:27;98592.16;;;12.33;100.00
40940;BME280;26666;50.156;7.700;2023-03-31T17:26:29;98587.41;;;12.29;100.00
40940;BME280;26666;50.156;7.700;2023-03-31T17:31:32;98593.91;;;12.26;100.00
40940;BME280;26666;50.156;7.700;2023-03-31T17:36:33;98598.66;;;12.16;100.00
40940;BME280;26666;50.156;7.700;2023-03-31T17:41:35;98588.19;;;12.08;100.00
40940;BME280;26666;50.156;7.700;2023-03-31T17:46:38;98607.44;;;12.01;100.00
40940;BME280;26666;50.156;7.700;2023-03-31T17:51:40;98604.44;;;12.05;100.00
40940;BME280;26666;50.156;7.700;2023-03-31T17:56:42;98612.09;;;11.99;100.00
40940;BME280;26666;50.156;7.700;2023-03-31T18:01:45;98614.34;;;11.73;100.00
40940;BME280;26666;50.156;7.700;2023-03-31T18:06:47;98604.47;;;11.67;100.00
40940;BME280;26666;50.156;7.700;2023-03-31T18:11:48;98604.00;;;11.63;100.00
40940;BME280;26666;50.156;7.700;2023-03-31T18:16:51;98602.47;;;11.69;100.00
40940;BME280;26666;50.156;7.700;2023-03-31T18:21:53;98592.69;;;11.69;100.00
40940;BME280;26666;50.156;7.700;2023-03-31T18:26:55;98600.38;;;11.64;100.00
40940;BME280;26666;50.156;7.700;2023-03-31T18:31:58;98594.91;;;11.66;100.00
40940;BME280;26666;50.156;7.700;2023-03-31T18:37:00;98599.81;;;11.69;100.00
40940;BME280;26666;50.156;7.700;2023-03-31T18:42:02;98603.06;;;11.41;100.00
40940;BME280;26666;50.156;7.700;2023-03-31T18:47:05;98618.88;;;11.49;100.00
40940;BME280;26666;50.156;7.700;2023-03-31T18:52:07;98635.34;;;11.36;100.00
40940;BME280;26666;50.156;7.700;2023-03-31T18:57:08;98626.25;;;11.39;100.00
40940;BME280;26666;50.156;7.700;2023-03-31T19:02:13;98627.66;;;11.27;100.00
40940;BME280;26666;50.156;7.700;2023-03-31T19:07:15;98617.34;;;11.17;100.00
40940;BME280;26666;50.156;7.700;2023-03-31T19:12:17;98625.38;;;11.00;100.00
40940;BME280;26666;50.156;7.700;2023-03-31T19:17:20;98630.34;;;11.18;100.00
40940;BME280;26666;50.156;7.700;2023-03-31T19:22:22;98629.31;;;11.04;100.00
40940;BME280;26666;50.156;7.700;2023-03-31T19:27:23;98629.31;;;11.04;100.00
40940;BME280;26666;50.156;7.700;2023-03-31T19:32:26;98649.63;;;11.04;100.00
40940;BME280;26666;50.156;7.700;2023-03-31T19:37:28;98651.97;;;10.99;100.00
40940;BME280;26666;50.156;7.700;2023-03-31T19:42:31;98653.16;;;10.96;100.00
40940;BME280;26666;50.156;7.700;2023-03-31T19:47:34;98651.47;;;11.03;100.00
40940;BME280;26666;50.156;7.700;2023-03-31T19:52:36;98645.41;;;10.95;100.00
40940;BME280;26666;50.156;7.700;2023-03-31T19:57:38;98640.00;;;10.88;100.00
40940;BME280;26666;50.156;7.700;2023-03-31T20:02:41;98643.47;;;10.89;100.00
40940;BME280;26666;50.156;7.700;2023-03-31T20:07:43;98639.16;;;10.88;100.00
40940;BME280;26666;50.156;7.700;2023-03-31T20:12:45;98638.31;;;10.64;100.00
40940;BME280;26666;50.156;7.700;2023-03-31T20:17:48;98635.53;;;10.89;100.00
40940;BME280;26666;50.156;7.700;2023-03-31T20:22:49;98633.13;;;10.79;100.00
40940;BME280;26666;50.156;7.700;2023-03-31T20:27:51;98630.69;;;10.69;100.00
40940;BME280;26666;50.156;7.700;2023-03-31T20:32:54;98645.91;;;10.67;100.00
40940;BME280;26666;50.156;7.700;2023-03-31T20:37:56;98646.44;;;10.62;100.00
40940;BME280;26666;50.156;7.700;2023-03-31T20:42:58;98637.97;;;10.67;100.00
40940;BME280;26666;50.156;7.700;2023-03-31T20:48:01;98636.41;;;10.81;100.00
40940;BME280;26666;50.156;7.700;2023-03-31T20:53:03;98624.84;;;10.82;100.00
40940;BME280;26666;50.156;7.700;2023-03-31T20:58:04;98647.63;;;10.83;100.00
40940;BME280;26666;50.156;7.700;2023-03-31T21:03:08;98643.22;;;10.98;100.00
40940;BME280;26666;50.156;7.700;2023-03-31T21:08:10;98642.66;;;11.11;100.00
40940;BME280;26666;50.156;7.700;2023-03-31T21:13:13;98641.94;;;10.94;100.00
40940;BME280;26666;50.156;7.700;2023-03-31T21:18:16;98640.84;;;11.12;100.00
40940;BME280;26666;50.156;7.700;2023-03-31T21:23:19;98637.59;;;11.01;100.00
40940;BME280;26666;50.156;7.700;2023-03-31T21:28:23;98646.75;;;10.91;100.00
40940;BME280;26666;50.156;7.700;2023-03-31T21:33:27;98654.78;;;10.97;100.00
40940;BME280;26666;50.156;7.700;2023-03-31T21:38:29;98632.34;;;10.93;100.00
40940;BME280;26666;50.156;7.700;2023-03-31T21:43:31;98648.09;;;10.87;100.00
40940;BME280;26666;50.156;7.700;2023-03-31T21:48:34;98651.28;;;10.82;100.00
40940;BME280;26666;50.156;7.700;2023-03-31T21:53:36;98664.28;;;10.83;100.00
40940;BME280;26666;50.156;7.700;2023-03-31T21:58:38;98648.81;;;10.80;100.00
40940;BME280;26666;50.156;7.700;2023-03-31T22:03:41;98658.44;;;10.96;100.00
40940;BME280;26666;50.156;7.700;2023-03-31T22:08:43;98659.97;;;10.91;100.00
40940;BME280;26666;50.156;7.700;2023-03-31T22:13:44;98654.56;;;10.84;100.00
40940;BME280;26666;50.156;7.700;2023-03-31T22:18:48;98664.66;;;10.80;100.00
40940;BME280;26666;50.156;7.700;2023-03-31T22:23:52;98649.69;;;10.96;100.00
40940;BME280;26666;50.156;7.700;2023-03-31T22:28:54;98653.31;;;10.95;100.00
40940;BME280;26666;50.156;7.700;2023-03-31T22:33:57;98662.25;;;10.94;100.00
40940;BME280;26666;50.156;7.700;2023-03-31T22:38:59;98656.91;;;11.02;100.00
40940;BME280;26666;50.156;7.700;2023-03-31T22:44:01;98654.03;;;10.89;100.00
40940;BME280;26666;50.156;7.700;2023-03-31T22:49:04;98661.25;;;10.95;100.00
40940;BME280;26666;50.156;7.700;2023-03-31T22:54:06;98656.13;;;10.93;100.00
40940;BME280;26666;50.156;7.700;2023-03-31T22:59:08;98675.66;;;10.92;100.00
40940;BME280;26666;50.156;7.700;2023-03-31T23:04:11;98664.53;;;10.97;100.00
40940;BME280;26666;50.156;7.700;2023-03-31T23:09:13;98657.00;;;10.85;100.00
40940;BME280;26666;50.156;7.700;2023-03-31T23:14:15;98671.34;;;10.91;100.00
40940;BME280;26666;50.156;7.700;2023-03-31T23:19:18;98664.38;;;10.98;100.00
40940;BME280;26666;50.156;7.700;2023-03-31T23:24:20;98653.16;;;10.96;100.00
40940;BME280;26666;50.156;7.700;2023-03-31T23:29:22;98671.22;;;10.84;100.00
40940;BME280;26666;50.156;7.700;2023-03-31T23:34:25;98672.69;;;10.87;100.00
40940;BME280;26666;50.156;7.700;2023-03-31T23:39:27;98664.91;;;10.94;100.00
40940;BME280;26666;50.156;7.700;2023-03-31T23:44:28;98670.63;;;10.74;100.00
40940;BME280;26666;50.156;7.700;2023-03-31T23:49:31;98663.91;;;10.63;100.00
40940;BME280;26666;50.156;7.700;2023-03-31T23:54:33;98667.38;;;10.64;100.00
40940;BME280;26666;50.156;7.700;2023-03-31T23:59:35;98659.84;;;10.53;100.00
